EST,Max TemperatureF,Mean TemperatureF,Min TemperatureF,Max Dew PointF,MeanDew PointF,Min DewpointF,Max Humidity, Mean Humidity, Min Humidity, Max Sea Level PressureIn, Mean Sea Level PressureIn, Min Sea Level PressureIn, Max VisibilityMiles, Mean VisibilityMiles, Min VisibilityMiles, Max Wind SpeedMPH, Mean Wind SpeedMPH, Max Gust SpeedMPH,PrecipitationIn, CloudCover, Events, WindDirDegrees
2012-12-1,46,40,33,43,35,23,93,82,64,30.59,30.53,30.46,10,10,7,9,5,,0.04,8,Rain,86
2012-12-2,55,50,46,52,48,44,97,91,83,30.44,30.28,30.08,10,10,10,18,8,26,0.05,6,Rain,168
2012-12-3,59,46,33,50,43,30,96,83,57,30.28,30.14,30.04,10,10,6,21,11,28,0.00,3,,270
2012-12-4,54,42,30,50,37,30,100,95,80,30.34,30.26,30.04,10,4,0,14,1,17,0.00,6,Fog-Rain,177
2012-12-5,55,47,37,54,42,22,100,77,53,30.07,29.93,29.87,10,8,5,18,10,26,0.01,5,Rain,263
2012-12-6,37,29,21,25,22,18,92,68,54,30.31,30.25,30.09,10,10,10,16,10,24,0.00,3,,342
2012-12-7,46,34,21,46,36,18,100,89,73,30.30,30.17,30.05,10,10,10,10,2,17,0.01,6,Rain,176
2012-12-8,55,50,44,55,48,45,100,98,93,30.04,29.92,29.82,10,5,0,13,3,16,0.42,8,Fog-Rain,208
2012-12-9,48,45,42,46,42,34,100,87,63,30.26,30.14,29.96,10,8,5,16,7,24,0.06,5,Rain,337
2012-12-10,59,52,46,59,53,43,100,99,89,30.09,29.73,29.51,10,3,1,16,11,26,1.67,8,Rain,192
2012-12-11,55,46,36,56,42,24,100,81,57,30.13,29.80,29.55,10,7,1,14,6,22,0.01,6,Rain,322
2012-12-12,39,33,27,27,24,21,89,69,57,30.42,30.31,30.15,10,10,10,15,6,21,0.00,1,,309
2012-12-13,45,35,24,31,27,22,96,79,56,30.43,30.38,30.30,10,10,10,8,1,,0.00,2,,359
2012-12-14,46,35,24,34,28,22,96,72,50,30.28,30.17,30.06,10,10,9,18,4,23,0.00,0,,269
2012-12-15,43,35,27,30,27,22,85,71,53,30.32,30.26,30.17,10,10,10,13,5,17,0.00,2,,346
2012-12-16,39,34,30,39,30,23,97,80,65,30.30,30.19,30.02,10,8,3,14,6,22,0.26,6,Rain,85
2012-12-17,48,45,42,48,45,41,100,96,93,29.99,29.88,29.72,7,4,2,12,8,24,0.23,8,Rain,80
2012-12-18,52,48,44,52,48,42,100,98,89,29.71,29.49,29.41,10,5,1,15,8,18,0.26,7,Rain,184
2012-12-19,45,42,39,42,36,33,90,79,68,29.96,29.65,29.42,10,10,7,22,14,34,0.02,7,Rain,323
2012-12-20,43,39,35,39,34,30,97,82,68,30.16,30.09,29.96,10,10,10,15,10,24,0.04,6,Rain,22
2012-12-21,53,47,41,52,44,31,100,88,67,30.01,29.43,29.13,10,7,1,24,11,38,0.51,8,Rain,156
2012-12-22,39,34,30,34,26,16,87,67,44,29.64,29.40,29.27,10,10,10,21,12,29,0.00,5,Rain,266
2012-12-23,39,32,26,25,21,16,82,60,45,29.88,29.82,29.66,10,10,10,17,10,30,0.00,1,,266
2012-12-24,39,33,27,28,23,21,82,67,49,30.06,30.01,29.89,10,10,10,10,5,16,0.00,1,,264
2012-12-25,41,37,33,40,35,30,100,92,79,30.18,30.01,29.94,10,9,3,15,6,22,0.15,8,Rain,360
2012-12-26,39,36,34,36,29,25,93,73,61,30.27,30.16,29.85,10,9,5,16,10,29,0.28,5,Rain,46
2012-12-27,51,42,33,52,42,30,100,93,87,30.01,29.48,29.25,10,6,2,26,15,45,0.47,8,Rain,34
2012-12-28,39,34,28,29,23,20,82,69,53,30.00,29.91,29.76,10,10,10,20,13,30,0.00,3,,301
2012-12-29,39,33,27,39,31,22,100,90,70,30.01,29.54,29.20,10,6,0,24,8,37,1.36,6,Fog-Rain-Snow,26
2012-12-30,34,29,23,34,24,11,100,80,60,29.92,29.56,29.25,10,9,1,26,17,41,0.09,4,Snow,312
2012-12-31,35,28,21,29,20,11,79,70,60,30.05,29.95,29.78,10,10,10,16,11,24,0.00,2,,266